SEA weather

Seattle Tacoma International Airport
Seattle, Washington, United States

Public forecast

Using degrees Fahrenheit for public forecast. Weather courtesy of forecast.io.

METAR (pilot weather report)

Retrieved 2017/10/19 10:53 UTC (60 minutes ago):

KSEA 191053Z 17012KT 5SM RA BR FEW012 OVC060 11/10 A2962 RMK AO2 SLP037 P0011 T01110100

TAF (pilot weather forecast)

Retrieved 2017/10/19 06:22 UTC (6 hours ago):

TAF KSEA 190520Z 1906/2012 21010KT 5SM -RA BR SCT005 OVC060 TEMPO 1906/1909 3SM RA BR BKN005 OVC015 FM190900 18010KT P6SM -RA SCT015 OVC070 FM191200 18008KT P6SM BKN020 OVC040 FM191800 19010KT P6SM -SHRA OVC020